EWG5MU EDDH-EGLL
Flight info
| Callsign | EWG5MU |
|---|---|
| Flight time | 1h 12m |
| Altitude | 34000 |
| Route | WSN5C WSN N125 ITMIZ DCT ABNED L980 LOGAN |
| Aircraft | A320/M-SDE3FGHIRWY/LB1 |
Departure
| Time | 2026-05-07 11:33 |
|---|---|
| Airport | Hamburg Helmut Schmidt Airport (EDDH) |
Arrival
| Time | 2026-05-07 12:45 |
|---|---|
| Airport | London Heathrow Airport (EGLL) |
| Time | Latitude | Longitude | Altitude | Speed | Heading |
|---|---|---|---|---|---|
| 2026-05-07 11:08 | 53.62809 | 10.00246 | 47 ft | 0 kts | 62° |
| 2026-05-07 11:22 | 53.62807 | 10.00239 | 48 ft | 3 kts | 62° |
| 2026-05-07 11:22 | 53.62794 | 10.00199 | 43 ft | 4 kts | 62° |
| 2026-05-07 11:22 | 53.62784 | 10.00167 | 45 ft | 4 kts | 57° |
| 2026-05-07 11:23 | 53.62768 | 10.00142 | 48 ft | 4 kts | 353° |
| 2026-05-07 11:23 | 53.62747 | 10.00156 | 43 ft | 3 kts | 333° |
| 2026-05-07 11:23 | 53.62744 | 10.00159 | 44 ft | 0 kts | 333° |
| 2026-05-07 11:27 | 53.62781 | 10.00126 | 46 ft | 14 kts | 333° |
| 2026-05-07 11:27 | 53.62835 | 10.00034 | 48 ft | 10 kts | 277° |
| 2026-05-07 11:27 | 53.62820 | 9.99982 | 46 ft | 0 kts | 226° |
| 2026-05-07 11:27 | 53.62819 | 9.99980 | 47 ft | 0 kts | 226° |
| 2026-05-07 11:28 | 53.62793 | 9.99950 | 47 ft | 16 kts | 208° |
| 2026-05-07 11:28 | 53.62668 | 9.99832 | 45 ft | 19 kts | 216° |
| 2026-05-07 11:28 | 53.62625 | 9.99643 | 47 ft | 18 kts | 258° |
| 2026-05-07 11:28 | 53.62598 | 9.99398 | 47 ft | 25 kts | 259° |
| 2026-05-07 11:29 | 53.62566 | 9.99120 | 47 ft | 23 kts | 259° |
| 2026-05-07 11:29 | 53.62530 | 9.98809 | 47 ft | 30 kts | 259° |
| 2026-05-07 11:29 | 53.62491 | 9.98457 | 47 ft | 31 kts | 259° |
| 2026-05-07 11:29 | 53.62435 | 9.98114 | 47 ft | 30 kts | 242° |
| 2026-05-07 11:30 | 53.62302 | 9.97832 | 47 ft | 31 kts | 230° |
| 2026-05-07 11:30 | 53.62161 | 9.97545 | 47 ft | 32 kts | 230° |
| 2026-05-07 11:30 | 53.62014 | 9.97248 | 47 ft | 33 kts | 230° |
| 2026-05-07 11:30 | 53.61863 | 9.96943 | 47 ft | 34 kts | 230° |
| 2026-05-07 11:31 | 53.61722 | 9.96658 | 47 ft | 23 kts | 230° |
| 2026-05-07 11:31 | 53.61669 | 9.96482 | 47 ft | 15 kts | 279° |
| 2026-05-07 11:31 | 53.61745 | 9.96412 | 46 ft | 13 kts | 7° |
| 2026-05-07 11:31 | 53.61845 | 9.96436 | 45 ft | 11 kts | 17° |
| 2026-05-07 11:32 | 53.62060 | 9.96846 | 41 ft | 68 kts | 50° |
| 2026-05-07 11:32 | 53.62500 | 9.97735 | 41 ft | 126 kts | 50° |
| 2026-05-07 11:32 | 53.63150 | 9.99049 | 147 ft | 162 kts | 51° |
| 2026-05-07 11:33 | 53.63858 | 10.00506 | 871 ft | 160 kts | 53° |
| 2026-05-07 11:33 | 53.64571 | 10.01968 | 1618 ft | 166 kts | 52° |
| 2026-05-07 11:33 | 53.65352 | 10.03564 | 1980 ft | 187 kts | 51° |
| 2026-05-07 11:33 | 53.66228 | 10.05344 | 2374 ft | 207 kts | 51° |
| 2026-05-07 11:34 | 53.67151 | 10.07216 | 3281 ft | 207 kts | 51° |
| 2026-05-07 11:34 | 53.68071 | 10.09082 | 4182 ft | 207 kts | 51° |
| 2026-05-07 11:34 | 53.69207 | 10.10586 | 5023 ft | 215 kts | 23° |
| 2026-05-07 11:34 | 53.70718 | 10.10704 | 5809 ft | 229 kts | 348° |
| 2026-05-07 11:35 | 53.72199 | 10.09359 | 6196 ft | 260 kts | 317° |
| 2026-05-07 11:35 | 53.73097 | 10.06592 | 6731 ft | 282 kts | 281° |
| 2026-05-07 11:35 | 53.72925 | 10.03280 | 7507 ft | 290 kts | 250° |
| 2026-05-07 11:35 | 53.72113 | 10.00143 | 8401 ft | 292 kts | 242° |
| 2026-05-07 11:36 | 53.71134 | 9.97142 | 9323 ft | 293 kts | 239° |
| 2026-05-07 11:36 | 53.70087 | 9.94167 | 9917 ft | 296 kts | 239° |
| 2026-05-07 11:36 | 53.69025 | 9.91161 | 10524 ft | 305 kts | 239° |
| 2026-05-07 11:36 | 53.67922 | 9.87949 | 10778 ft | 328 kts | 240° |
| 2026-05-07 11:37 | 53.66759 | 9.84484 | 10953 ft | 351 kts | 241° |
| 2026-05-07 11:37 | 53.65536 | 9.80773 | 11102 ft | 373 kts | 241° |
| 2026-05-07 11:37 | 53.64259 | 9.76851 | 11433 ft | 387 kts | 242° |
| 2026-05-07 11:37 | 53.62963 | 9.72846 | 12011 ft | 392 kts | 242° |
| 2026-05-07 11:38 | 53.61656 | 9.68806 | 12668 ft | 394 kts | 242° |
| 2026-05-07 11:38 | 53.60334 | 9.64738 | 13312 ft | 397 kts | 242° |
| 2026-05-07 11:38 | 53.58999 | 9.60642 | 13921 ft | 401 kts | 242° |
| 2026-05-07 11:38 | 53.57651 | 9.56519 | 14463 ft | 403 kts | 242° |
| 2026-05-07 11:39 | 53.56295 | 9.52375 | 15024 ft | 406 kts | 242° |
| 2026-05-07 11:39 | 53.54930 | 9.48209 | 15580 ft | 407 kts | 242° |
| 2026-05-07 11:39 | 53.53558 | 9.44034 | 16142 ft | 409 kts | 242° |
| 2026-05-07 11:39 | 53.52174 | 9.39840 | 16669 ft | 412 kts | 241° |
| 2026-05-07 11:40 | 53.50779 | 9.35615 | 17196 ft | 414 kts | 241° |
| 2026-05-07 11:40 | 53.49381 | 9.31382 | 17768 ft | 415 kts | 242° |
| 2026-05-07 11:40 | 53.47975 | 9.27136 | 18262 ft | 418 kts | 241° |
| 2026-05-07 11:40 | 53.46557 | 9.22860 | 18679 ft | 421 kts | 241° |
| 2026-05-07 11:41 | 53.45128 | 9.18561 | 19117 ft | 423 kts | 241° |
| 2026-05-07 11:41 | 53.43692 | 9.14251 | 19543 ft | 424 kts | 241° |
| 2026-05-07 11:41 | 53.42246 | 9.09918 | 19932 ft | 427 kts | 241° |
| 2026-05-07 11:41 | 53.40793 | 9.05563 | 20336 ft | 429 kts | 241° |
| 2026-05-07 11:42 | 53.39347 | 9.01246 | 20743 ft | 431 kts | 241° |
| 2026-05-07 11:42 | 53.37872 | 8.96861 | 21111 ft | 433 kts | 240° |
| 2026-05-07 11:42 | 53.36387 | 8.92453 | 21476 ft | 436 kts | 240° |
| 2026-05-07 11:42 | 53.34926 | 8.87994 | 21872 ft | 437 kts | 244° |
| 2026-05-07 11:43 | 53.33780 | 8.83268 | 22215 ft | 440 kts | 250° |
| 2026-05-07 11:43 | 53.32724 | 8.78454 | 22571 ft | 442 kts | 250° |
| 2026-05-07 11:43 | 53.31660 | 8.73620 | 22933 ft | 444 kts | 249° |
| 2026-05-07 11:43 | 53.30586 | 8.68769 | 23261 ft | 446 kts | 249° |
| 2026-05-07 11:44 | 53.29505 | 8.63887 | 23552 ft | 449 kts | 249° |
| 2026-05-07 11:44 | 53.28420 | 8.58973 | 23861 ft | 450 kts | 249° |
| 2026-05-07 11:44 | 53.27337 | 8.54052 | 24139 ft | 452 kts | 249° |
| 2026-05-07 11:44 | 53.26256 | 8.49112 | 24394 ft | 454 kts | 250° |
| 2026-05-07 11:45 | 53.25234 | 8.44105 | 24664 ft | 456 kts | 251° |
| 2026-05-07 11:45 | 53.24279 | 8.39054 | 24995 ft | 456 kts | 252° |
| 2026-05-07 11:45 | 53.23362 | 8.34002 | 25367 ft | 455 kts | 253° |
| 2026-05-07 11:45 | 53.22451 | 8.28939 | 25745 ft | 454 kts | 253° |
| 2026-05-07 11:46 | 53.21533 | 8.23908 | 26144 ft | 453 kts | 252° |
| 2026-05-07 11:46 | 53.20610 | 8.18964 | 26513 ft | 452 kts | 252° |
| 2026-05-07 11:46 | 53.19646 | 8.13899 | 26880 ft | 452 kts | 252° |
| 2026-05-07 11:46 | 53.18690 | 8.08919 | 27291 ft | 450 kts | 252° |
| 2026-05-07 11:47 | 53.17740 | 8.03950 | 27694 ft | 449 kts | 252° |
| 2026-05-07 11:47 | 53.16809 | 7.99051 | 28042 ft | 450 kts | 252° |
| 2026-05-07 11:47 | 53.15872 | 7.94091 | 28456 ft | 448 kts | 252° |
| 2026-05-07 11:47 | 53.14941 | 7.89151 | 28915 ft | 446 kts | 252° |
| 2026-05-07 11:48 | 53.14010 | 7.84220 | 29301 ft | 446 kts | 252° |
| 2026-05-07 11:48 | 53.13077 | 7.79302 | 29688 ft | 445 kts | 252° |
| 2026-05-07 11:48 | 53.12142 | 7.74395 | 30129 ft | 443 kts | 252° |
| 2026-05-07 11:48 | 53.11205 | 7.69511 | 30467 ft | 443 kts | 252° |
| 2026-05-07 11:49 | 53.10190 | 7.64665 | 30755 ft | 443 kts | 247° |
| 2026-05-07 11:49 | 53.08980 | 7.59940 | 30986 ft | 445 kts | 247° |
| 2026-05-07 11:49 | 53.07768 | 7.55189 | 31235 ft | 447 kts | 247° |
| 2026-05-07 11:49 | 53.06556 | 7.50432 | 31515 ft | 447 kts | 247° |
| 2026-05-07 11:50 | 53.05343 | 7.45673 | 31854 ft | 446 kts | 247° |
| 2026-05-07 11:50 | 53.04131 | 7.40933 | 32197 ft | 445 kts | 247° |
| 2026-05-07 11:50 | 53.02915 | 7.36188 | 32519 ft | 445 kts | 247° |
| 2026-05-07 11:50 | 53.01705 | 7.31464 | 32894 ft | 443 kts | 247° |
| 2026-05-07 11:51 | 53.00505 | 7.26786 | 33366 ft | 439 kts | 247° |
| 2026-05-07 11:51 | 52.99302 | 7.22125 | 33718 ft | 438 kts | 247° |
| 2026-05-07 11:51 | 52.98100 | 7.17488 | 34016 ft | 438 kts | 247° |
| 2026-05-07 11:52 | 52.95692 | 7.08225 | 34069 ft | 438 kts | 246° |
| 2026-05-07 11:52 | 52.93269 | 6.98924 | 34066 ft | 440 kts | 246° |
| 2026-05-07 11:53 | 52.90835 | 6.89609 | 34069 ft | 441 kts | 246° |
| 2026-05-07 11:53 | 52.88390 | 6.80309 | 34074 ft | 440 kts | 246° |
| 2026-05-07 11:54 | 52.85933 | 6.71016 | 34073 ft | 440 kts | 246° |
| 2026-05-07 11:54 | 52.83489 | 6.61788 | 34070 ft | 441 kts | 246° |
| 2026-05-07 11:55 | 52.81030 | 6.52526 | 34065 ft | 439 kts | 246° |
| 2026-05-07 11:55 | 52.78563 | 6.43280 | 34072 ft | 439 kts | 246° |
| 2026-05-07 11:56 | 52.76094 | 6.34063 | 34069 ft | 440 kts | 246° |
| 2026-05-07 11:56 | 52.73608 | 6.24841 | 34068 ft | 439 kts | 246° |
| 2026-05-07 11:57 | 52.71116 | 6.15627 | 34073 ft | 440 kts | 246° |
| 2026-05-07 11:57 | 52.68626 | 6.06437 | 34068 ft | 439 kts | 245° |
| 2026-05-07 11:58 | 52.66128 | 5.97286 | 34072 ft | 443 kts | 245° |
| 2026-05-07 11:58 | 52.63567 | 5.87929 | 34070 ft | 446 kts | 245° |
| 2026-05-07 11:59 | 52.61027 | 5.78684 | 34073 ft | 442 kts | 245° |
| 2026-05-07 11:59 | 52.58496 | 5.69525 | 34075 ft | 438 kts | 245° |
| 2026-05-07 12:00 | 52.55972 | 5.60420 | 34082 ft | 438 kts | 245° |
| 2026-05-07 12:00 | 52.53454 | 5.51316 | 34079 ft | 437 kts | 245° |
| 2026-05-07 12:01 | 52.50916 | 5.42196 | 34088 ft | 442 kts | 245° |
| 2026-05-07 12:01 | 52.48343 | 5.33011 | 34083 ft | 444 kts | 245° |
| 2026-05-07 12:02 | 52.45750 | 5.23807 | 34083 ft | 444 kts | 245° |
| 2026-05-07 12:02 | 52.43153 | 5.14619 | 34082 ft | 444 kts | 245° |
| 2026-05-07 12:03 | 52.40554 | 5.05441 | 34080 ft | 442 kts | 245° |
| 2026-05-07 12:03 | 52.37974 | 4.96358 | 34085 ft | 439 kts | 244° |
| 2026-05-07 12:04 | 52.35385 | 4.87285 | 34083 ft | 442 kts | 244° |
| 2026-05-07 12:04 | 52.32775 | 4.78191 | 34085 ft | 442 kts | 244° |
| 2026-05-07 12:05 | 52.30170 | 4.69156 | 34085 ft | 442 kts | 244° |
| 2026-05-07 12:05 | 52.27548 | 4.60074 | 34078 ft | 442 kts | 244° |
| 2026-05-07 12:06 | 52.24917 | 4.50997 | 34084 ft | 442 kts | 244° |
| 2026-05-07 12:06 | 52.22271 | 4.41929 | 34082 ft | 442 kts | 244° |
| 2026-05-07 12:07 | 52.20054 | 4.34346 | 34077 ft | 442 kts | 244° |
| 2026-05-07 12:07 | 52.17439 | 4.25409 | 34092 ft | 437 kts | 244° |
| 2026-05-07 12:08 | 52.14814 | 4.16488 | 34092 ft | 437 kts | 244° |
| 2026-05-07 12:08 | 52.12177 | 4.07584 | 34097 ft | 437 kts | 244° |
| 2026-05-07 12:09 | 52.09540 | 3.98680 | 34096 ft | 437 kts | 244° |
| 2026-05-07 12:09 | 52.06894 | 3.89785 | 34099 ft | 438 kts | 244° |
| 2026-05-07 12:10 | 52.04235 | 3.80864 | 34098 ft | 439 kts | 244° |
| 2026-05-07 12:10 | 52.01555 | 3.71941 | 34104 ft | 440 kts | 243° |
| 2026-05-07 12:11 | 51.98868 | 3.63027 | 34105 ft | 440 kts | 244° |
| 2026-05-07 12:11 | 51.96196 | 3.54156 | 34109 ft | 436 kts | 244° |
| 2026-05-07 12:12 | 51.93522 | 3.45338 | 34100 ft | 436 kts | 244° |
| 2026-05-07 12:12 | 51.90838 | 3.36523 | 34103 ft | 437 kts | 243° |
| 2026-05-07 12:13 | 51.88158 | 3.27756 | 34098 ft | 438 kts | 243° |
| 2026-05-07 12:13 | 51.85565 | 3.18849 | 34102 ft | 438 kts | 250° |
| 2026-05-07 12:14 | 51.84412 | 3.09200 | 34099 ft | 439 kts | 264° |
| 2026-05-07 12:14 | 51.83791 | 2.99389 | 34094 ft | 439 kts | 263° |
| 2026-05-07 12:15 | 51.83131 | 2.89576 | 34095 ft | 439 kts | 263° |
| 2026-05-07 12:15 | 51.82466 | 2.79730 | 34095 ft | 441 kts | 263° |
| 2026-05-07 12:16 | 51.81800 | 2.69862 | 34098 ft | 442 kts | 263° |
| 2026-05-07 12:16 | 51.81128 | 2.59997 | 34099 ft | 442 kts | 263° |
| 2026-05-07 12:17 | 51.80438 | 2.50141 | 34101 ft | 442 kts | 263° |
| 2026-05-07 12:17 | 51.79743 | 2.40278 | 34096 ft | 442 kts | 263° |
| 2026-05-07 12:18 | 51.79045 | 2.30383 | 34074 ft | 444 kts | 263° |
| 2026-05-07 12:18 | 51.78690 | 2.25418 | 33246 ft | 447 kts | 263° |
| 2026-05-07 12:18 | 51.78332 | 2.20408 | 32358 ft | 448 kts | 263° |
| 2026-05-07 12:18 | 51.78006 | 2.15410 | 31526 ft | 448 kts | 264° |
| 2026-05-07 12:19 | 51.77709 | 2.10399 | 30664 ft | 449 kts | 264° |
| 2026-05-07 12:19 | 51.77427 | 2.05374 | 29862 ft | 448 kts | 264° |
| 2026-05-07 12:19 | 51.77156 | 2.00460 | 29156 ft | 443 kts | 264° |
| 2026-05-07 12:19 | 51.76877 | 1.95537 | 28447 ft | 438 kts | 264° |
| 2026-05-07 12:20 | 51.76591 | 1.90664 | 27732 ft | 434 kts | 264° |
| 2026-05-07 12:20 | 51.76299 | 1.85839 | 27038 ft | 430 kts | 264° |
| 2026-05-07 12:20 | 51.76003 | 1.81048 | 26392 ft | 426 kts | 263° |
| 2026-05-07 12:20 | 51.75709 | 1.76309 | 25768 ft | 422 kts | 263° |
| 2026-05-07 12:21 | 51.75418 | 1.71615 | 25156 ft | 418 kts | 263° |
| 2026-05-07 12:21 | 51.75126 | 1.66969 | 24559 ft | 414 kts | 263° |
| 2026-05-07 12:21 | 51.74836 | 1.62369 | 23972 ft | 410 kts | 263° |
| 2026-05-07 12:21 | 51.74548 | 1.57806 | 23350 ft | 407 kts | 263° |
| 2026-05-07 12:22 | 51.74263 | 1.53286 | 22694 ft | 403 kts | 263° |
| 2026-05-07 12:22 | 51.73977 | 1.48797 | 22064 ft | 400 kts | 263° |
| 2026-05-07 12:22 | 51.73691 | 1.44361 | 21457 ft | 396 kts | 263° |
| 2026-05-07 12:22 | 51.73406 | 1.39958 | 20870 ft | 393 kts | 263° |
| 2026-05-07 12:23 | 51.73121 | 1.35586 | 20293 ft | 390 kts | 263° |
| 2026-05-07 12:23 | 51.72839 | 1.31254 | 19730 ft | 387 kts | 263° |
| 2026-05-07 12:23 | 51.72555 | 1.26951 | 19189 ft | 384 kts | 263° |
| 2026-05-07 12:23 | 51.72270 | 1.22685 | 18667 ft | 381 kts | 263° |
| 2026-05-07 12:24 | 51.71988 | 1.18454 | 18114 ft | 378 kts | 263° |
| 2026-05-07 12:24 | 51.71707 | 1.14251 | 17538 ft | 376 kts | 263° |
| 2026-05-07 12:24 | 51.71427 | 1.10067 | 16974 ft | 373 kts | 263° |
| 2026-05-07 12:24 | 51.71146 | 1.05927 | 16450 ft | 370 kts | 263° |
| 2026-05-07 12:25 | 51.70861 | 1.01813 | 16125 ft | 368 kts | 263° |
| 2026-05-07 12:25 | 51.70577 | 0.97761 | 15951 ft | 369 kts | 263° |
| 2026-05-07 12:25 | 51.70293 | 0.93679 | 15497 ft | 366 kts | 263° |
| 2026-05-07 12:25 | 51.70012 | 0.89612 | 14973 ft | 364 kts | 263° |
| 2026-05-07 12:26 | 51.69733 | 0.85570 | 14470 ft | 362 kts | 263° |
| 2026-05-07 12:26 | 51.69453 | 0.81547 | 13992 ft | 360 kts | 263° |
| 2026-05-07 12:26 | 51.69171 | 0.77547 | 13443 ft | 358 kts | 263° |
| 2026-05-07 12:26 | 51.68889 | 0.73571 | 12894 ft | 356 kts | 263° |
| 2026-05-07 12:27 | 51.68609 | 0.69620 | 12377 ft | 353 kts | 263° |
| 2026-05-07 12:27 | 51.68332 | 0.65710 | 11841 ft | 350 kts | 263° |
| 2026-05-07 12:27 | 51.68058 | 0.61818 | 11282 ft | 348 kts | 263° |
| 2026-05-07 12:27 | 51.67782 | 0.57955 | 10762 ft | 346 kts | 263° |
| 2026-05-07 12:28 | 51.67504 | 0.54119 | 10353 ft | 341 kts | 263° |
| 2026-05-07 12:28 | 51.67234 | 0.50404 | 10227 ft | 327 kts | 263° |
| 2026-05-07 12:28 | 51.66973 | 0.46832 | 10108 ft | 315 kts | 263° |
| 2026-05-07 12:28 | 51.66717 | 0.43395 | 9981 ft | 303 kts | 262° |
| 2026-05-07 12:29 | 51.66468 | 0.40085 | 9851 ft | 292 kts | 262° |
| 2026-05-07 12:29 | 51.66230 | 0.36875 | 9594 ft | 286 kts | 262° |
| 2026-05-07 12:29 | 51.65995 | 0.33709 | 9245 ft | 284 kts | 262° |
| 2026-05-07 12:29 | 51.65761 | 0.30568 | 8878 ft | 282 kts | 262° |
| 2026-05-07 12:30 | 51.65527 | 0.27443 | 8506 ft | 280 kts | 262° |
| 2026-05-07 12:30 | 51.65291 | 0.24338 | 8155 ft | 278 kts | 262° |
| 2026-05-07 12:30 | 51.65056 | 0.21268 | 8073 ft | 277 kts | 262° |
| 2026-05-07 12:30 | 51.64819 | 0.18192 | 8081 ft | 277 kts | 261° |
| 2026-05-07 12:31 | 51.64584 | 0.15107 | 8083 ft | 278 kts | 262° |
| 2026-05-07 12:31 | 51.64380 | 0.12011 | 8081 ft | 278 kts | 263° |
| 2026-05-07 12:31 | 51.64211 | 0.08905 | 8082 ft | 278 kts | 264° |
| 2026-05-07 12:31 | 51.64053 | 0.05801 | 8082 ft | 278 kts | 264° |
| 2026-05-07 12:32 | 51.63896 | 0.02738 | 8082 ft | 278 kts | 264° |
| 2026-05-07 12:32 | 51.63735 | -0.00359 | 8082 ft | 275 kts | 264° |
| 2026-05-07 12:32 | 51.63576 | -0.03344 | 7995 ft | 261 kts | 264° |
| 2026-05-07 12:32 | 51.63419 | -0.06197 | 7878 ft | 250 kts | 264° |
| 2026-05-07 12:33 | 51.63116 | -0.11600 | 7418 ft | 238 kts | 264° |
| 2026-05-07 12:33 | 51.62965 | -0.14250 | 7141 ft | 236 kts | 264° |
| 2026-05-07 12:33 | 51.62815 | -0.16869 | 7079 ft | 235 kts | 264° |
| 2026-05-07 12:34 | 51.62665 | -0.19499 | 7079 ft | 236 kts | 264° |
| 2026-05-07 12:34 | 51.62514 | -0.22133 | 7082 ft | 237 kts | 264° |
| 2026-05-07 12:34 | 51.62363 | -0.24769 | 7082 ft | 237 kts | 264° |
| 2026-05-07 12:34 | 51.62210 | -0.27403 | 7082 ft | 236 kts | 264° |
| 2026-05-07 12:35 | 51.62055 | -0.30037 | 7084 ft | 236 kts | 264° |
| 2026-05-07 12:35 | 51.61900 | -0.32673 | 7086 ft | 237 kts | 264° |
| 2026-05-07 12:35 | 51.61745 | -0.35305 | 7087 ft | 236 kts | 264° |
| 2026-05-07 12:35 | 51.61590 | -0.37943 | 7082 ft | 237 kts | 264° |
| 2026-05-07 12:36 | 51.61435 | -0.40575 | 7085 ft | 237 kts | 264° |
| 2026-05-07 12:36 | 51.61277 | -0.43215 | 7083 ft | 236 kts | 264° |
| 2026-05-07 12:36 | 51.61120 | -0.45852 | 7082 ft | 236 kts | 264° |
| 2026-05-07 12:36 | 51.60962 | -0.48487 | 7082 ft | 237 kts | 264° |
| 2026-05-07 12:37 | 51.60805 | -0.51122 | 7082 ft | 237 kts | 264° |
| 2026-05-07 12:37 | 51.60646 | -0.53746 | 6892 ft | 235 kts | 264° |
| 2026-05-07 12:37 | 51.60486 | -0.56354 | 6567 ft | 233 kts | 264° |
| 2026-05-07 12:37 | 51.60321 | -0.58937 | 6236 ft | 231 kts | 261° |
| 2026-05-07 12:38 | 51.59783 | -0.61350 | 5890 ft | 229 kts | 243° |
| 2026-05-07 12:38 | 51.59016 | -0.63588 | 5548 ft | 228 kts | 240° |
| 2026-05-07 12:38 | 51.58226 | -0.65799 | 5231 ft | 227 kts | 240° |
| 2026-05-07 12:38 | 51.57437 | -0.67992 | 4918 ft | 226 kts | 240° |
| 2026-05-07 12:39 | 51.56652 | -0.70175 | 4588 ft | 225 kts | 240° |
| 2026-05-07 12:39 | 51.55861 | -0.72341 | 4259 ft | 224 kts | 240° |
| 2026-05-07 12:39 | 51.55075 | -0.74493 | 4012 ft | 222 kts | 240° |
| 2026-05-07 12:39 | 51.54143 | -0.76420 | 3999 ft | 221 kts | 217° |
| 2026-05-07 12:40 | 51.52765 | -0.77280 | 3954 ft | 211 kts | 188° |
| 2026-05-07 12:40 | 51.51324 | -0.77403 | 3813 ft | 201 kts | 182° |
| 2026-05-07 12:40 | 51.49979 | -0.77384 | 3629 ft | 188 kts | 175° |
| 2026-05-07 12:40 | 51.48771 | -0.76670 | 3381 ft | 186 kts | 144° |
| 2026-05-07 12:41 | 51.47914 | -0.75108 | 3303 ft | 190 kts | 117° |
| 2026-05-07 12:41 | 51.47616 | -0.73061 | 3122 ft | 191 kts | 90° |
| 2026-05-07 12:41 | 51.47630 | -0.70947 | 2881 ft | 188 kts | 89° |
| 2026-05-07 12:41 | 51.47646 | -0.68867 | 2634 ft | 185 kts | 89° |
| 2026-05-07 12:42 | 51.47659 | -0.66818 | 2389 ft | 182 kts | 89° |
| 2026-05-07 12:42 | 51.47670 | -0.64837 | 2143 ft | 174 kts | 90° |
| 2026-05-07 12:42 | 51.47680 | -0.62927 | 1913 ft | 170 kts | 90° |
| 2026-05-07 12:42 | 51.47690 | -0.61044 | 1684 ft | 168 kts | 89° |
| 2026-05-07 12:43 | 51.47700 | -0.59190 | 1462 ft | 163 kts | 89° |
| 2026-05-07 12:43 | 51.47708 | -0.57412 | 1249 ft | 155 kts | 89° |
| 2026-05-07 12:43 | 51.47716 | -0.55741 | 1034 ft | 146 kts | 89° |
| 2026-05-07 12:43 | 51.47724 | -0.54135 | 830 ft | 143 kts | 90° |
| 2026-05-07 12:44 | 51.47731 | -0.52559 | 636 ft | 140 kts | 90° |
| 2026-05-07 12:44 | 51.47736 | -0.51008 | 423 ft | 139 kts | 91° |
| 2026-05-07 12:44 | 51.47749 | -0.49471 | 227 ft | 137 kts | 91° |
| 2026-05-07 12:44 | 51.47755 | -0.47950 | 97 ft | 134 kts | 92° |
| 2026-05-07 12:45 | 51.47757 | -0.46630 | 89 ft | 102 kts | 89° |
| 2026-05-07 12:45 | 51.47760 | -0.45629 | 85 ft | 74 kts | 89° |
| 2026-05-07 12:45 | 51.47762 | -0.45051 | 89 ft | 34 kts | 89° |
| 2026-05-07 12:45 | 51.47692 | -0.44835 | 91 ft | 14 kts | 148° |
| 2026-05-07 12:46 | 51.47606 | -0.44758 | 87 ft | 14 kts | 121° |
| 2026-05-07 12:46 | 51.47544 | -0.44657 | 86 ft | 15 kts | 177° |
| 2026-05-07 12:46 | 51.47470 | -0.44562 | 87 ft | 14 kts | 163° |
| 2026-05-07 12:46 | 51.47367 | -0.44559 | 86 ft | 16 kts | 180° |
| 2026-05-07 12:47 | 51.47249 | -0.44557 | 86 ft | 18 kts | 179° |
| 2026-05-07 12:47 | 51.47118 | -0.44557 | 86 ft | 20 kts | 180° |
| 2026-05-07 12:47 | 51.46981 | -0.44555 | 86 ft | 16 kts | 179° |
| 2026-05-07 12:47 | 51.46869 | -0.44555 | 86 ft | 14 kts | 180° |
| 2026-05-07 12:48 | 51.46824 | -0.44573 | 89 ft | 5 kts | 236° |
| 2026-05-07 12:48 | 51.46821 | -0.44636 | 89 ft | 6 kts | 266° |
| 2026-05-07 12:48 | 51.46820 | -0.44668 | 90 ft | 2 kts | 267° |
| 2026-05-07 12:48 | 51.46820 | -0.44680 | 90 ft | 0 kts | 267° |